createdAt,value
2023-02-11T00:00:29.341Z,0.00
2023-02-11T00:01:29.348Z,0.00
2023-02-11T00:02:29.604Z,0.00
2023-02-11T00:03:29.893Z,0.00
2023-02-11T00:04:29.620Z,0.00
2023-02-11T00:05:29.083Z,0.00
2023-02-11T00:06:29.095Z,0.00
2023-02-11T00:07:29.065Z,0.00
2023-02-11T00:08:29.156Z,0.00
2023-02-11T00:09:31.734Z,0.00
2023-02-11T00:10:29.038Z,0.00
2023-02-11T00:11:29.016Z,0.00
2023-02-11T00:12:29.304Z,0.00
2023-02-11T00:13:29.327Z,0.00
2023-02-11T00:14:29.348Z,0.00
2023-02-11T00:15:29.392Z,0.00
2023-02-11T00:16:29.382Z,0.00
2023-02-11T00:17:29.368Z,0.00
2023-02-11T00:18:29.362Z,0.00
2023-02-11T00:19:29.551Z,0.00
2023-02-11T00:20:29.578Z,0.00
2023-02-11T00:21:29.046Z,0.00
2023-02-11T00:22:28.959Z,0.00
2023-02-11T00:23:29.391Z,0.00
2023-02-11T00:24:28.885Z,0.00
2023-02-11T00:25:28.873Z,0.00
2023-02-11T00:26:29.796Z,0.00
2023-02-11T00:27:29.140Z,0.00
2023-02-11T00:28:29.703Z,0.00
2023-02-11T00:29:29.354Z,0.00
2023-02-11T00:30:29.289Z,0.00
2023-02-11T00:31:30.012Z,0.00
2023-02-11T00:32:29.497Z,0.00
2023-02-11T00:33:29.102Z,0.00
2023-02-11T00:34:29.602Z,0.00
2023-02-11T00:35:29.983Z,0.00
2023-02-11T00:36:28.802Z,0.00
2023-02-11T00:37:29.365Z,0.00
2023-02-11T00:38:29.360Z,0.00
2023-02-11T00:39:28.686Z,0.00
2023-02-11T00:40:28.714Z,0.00
2023-02-11T00:41:28.679Z,0.00
2023-02-11T00:42:28.668Z,0.00
2023-02-11T00:43:28.773Z,0.00
2023-02-11T00:44:28.801Z,0.00
2023-02-11T00:45:28.822Z,0.00
2023-02-11T00:46:28.946Z,0.00
2023-02-11T00:47:28.864Z,0.00
2023-02-11T00:48:28.609Z,0.00
2023-02-11T00:49:28.622Z,0.00
2023-02-11T00:50:28.651Z,0.00
2023-02-11T00:51:28.708Z,0.00
2023-02-11T00:52:28.782Z,0.00
2023-02-11T00:53:28.765Z,0.00
2023-02-11T00:54:30.036Z,0.00
2023-02-11T00:55:28.616Z,0.00
2023-02-11T00:56:28.863Z,0.00
2023-02-11T00:57:28.484Z,0.00
2023-02-11T00:58:28.936Z,0.00
2023-02-11T00:59:28.456Z,0.00
2023-02-11T01:00:29.002Z,0.00
2023-02-11T01:01:28.697Z,0.00
2023-02-11T01:02:29.074Z,0.00
2023-02-11T01:03:29.117Z,0.00
2023-02-11T01:04:28.435Z,0.00
2023-02-11T01:05:28.506Z,0.00
2023-02-11T01:06:28.426Z,0.00
2023-02-11T01:07:28.376Z,0.00
2023-02-11T01:08:28.383Z,0.00
2023-02-11T01:09:28.375Z,0.00
2023-02-11T01:10:28.379Z,0.00
2023-02-11T01:11:28.377Z,0.00
2023-02-11T01:12:28.396Z,0.00
2023-02-11T01:13:28.420Z,0.00
2023-02-11T01:14:28.390Z,0.00
2023-02-11T01:15:28.381Z,0.00
2023-02-11T01:16:28.396Z,0.00
2023-02-11T01:17:28.302Z,0.00
2023-02-11T01:18:28.309Z,0.00
2023-02-11T01:19:28.267Z,0.00
2023-02-11T01:20:28.414Z,0.00
2023-02-11T01:21:28.223Z,0.00
2023-02-11T01:22:28.243Z,0.00
2023-02-11T01:23:28.205Z,0.00
2023-02-11T01:24:28.417Z,0.00
2023-02-11T01:25:28.202Z,0.00
2023-02-11T01:26:28.401Z,0.00
2023-02-11T01:27:28.162Z,0.00
2023-02-11T01:28:28.454Z,0.00
2023-02-11T01:29:28.403Z,0.00
2023-02-11T01:30:28.137Z,0.00
2023-02-11T01:31:28.215Z,0.00
2023-02-11T01:32:28.140Z,0.00
2023-02-11T01:33:28.172Z,0.00
2023-02-11T01:34:28.078Z,0.00
2023-02-11T01:35:28.076Z,0.00
2023-02-11T01:36:28.122Z,0.00
2023-02-11T01:37:28.053Z,0.00
2023-02-11T01:38:28.169Z,0.00
2023-02-11T01:39:28.180Z,0.00
2023-02-11T01:40:28.215Z,0.00
2023-02-11T01:41:28.226Z,0.00
2023-02-11T01:42:28.166Z,0.00
2023-02-11T01:43:28.105Z,0.00
2023-02-11T01:44:28.087Z,0.00
2023-02-11T01:45:27.952Z,0.00
2023-02-11T01:46:27.980Z,0.00
2023-02-11T01:47:28.396Z,0.00
2023-02-11T01:48:28.414Z,0.00
2023-02-11T01:49:28.066Z,0.00
2023-02-11T01:50:28.285Z,0.00
2023-02-11T01:51:27.986Z,0.00
2023-02-11T01:52:28.420Z,0.00
2023-02-11T01:53:27.882Z,0.00
2023-02-11T01:54:27.864Z,0.00
2023-02-11T01:55:27.851Z,0.00
2023-02-11T01:56:27.995Z,0.00
2023-02-11T01:57:28.416Z,0.00
2023-02-11T01:58:27.821Z,0.00
2023-02-11T01:59:27.835Z,0.00
2023-02-11T02:00:28.425Z,0.00
2023-02-11T02:01:27.825Z,0.00
2023-02-11T02:02:27.770Z,0.00
2023-02-11T02:03:27.771Z,0.00
2023-02-11T02:04:27.797Z,0.00
2023-02-11T02:05:28.394Z,0.00
2023-02-11T02:06:28.395Z,0.00
2023-02-11T02:07:27.710Z,0.00
2023-02-11T02:08:28.073Z,0.00
2023-02-11T02:09:27.671Z,0.00
2023-02-11T02:10:27.688Z,0.00
2023-02-11T02:11:27.761Z,0.00
2023-02-11T02:12:28.450Z,0.00
2023-02-11T02:13:28.431Z,0.00
2023-02-11T02:14:27.624Z,0.00
2023-02-11T02:15:27.700Z,0.00
2023-02-11T02:16:27.768Z,0.00
2023-02-11T02:17:27.584Z,0.00
2023-02-11T02:18:27.628Z,0.00
2023-02-11T02:19:27.765Z,0.00
2023-02-11T02:20:27.812Z,0.00
2023-02-11T02:21:27.843Z,0.00
2023-02-11T02:22:27.535Z,0.00
2023-02-11T02:23:27.758Z,0.00
2023-02-11T02:24:27.981Z,0.00
2023-02-11T02:25:27.672Z,0.00
2023-02-11T02:26:27.693Z,0.00
2023-02-11T02:27:28.060Z,0.00
2023-02-11T02:28:27.504Z,0.00
2023-02-11T02:29:27.456Z,0.00
2023-02-11T02:30:27.519Z,0.00
2023-02-11T02:31:27.504Z,0.00
2023-02-11T02:32:27.424Z,0.00
2023-02-11T02:33:27.390Z,0.00
2023-02-11T02:34:27.407Z,0.00
2023-02-11T02:35:27.453Z,0.00
2023-02-11T02:36:27.442Z,0.00
2023-02-11T02:37:27.440Z,0.00
2023-02-11T02:38:27.459Z,0.00
2023-02-11T02:39:27.423Z,0.00
2023-02-11T02:40:27.453Z,0.00
2023-02-11T02:41:27.325Z,0.00
2023-02-11T02:42:27.331Z,0.00
2023-02-11T02:43:27.449Z,0.00
2023-02-11T02:44:27.450Z,0.00
2023-02-11T02:45:27.466Z,0.00
2023-02-11T02:46:27.399Z,0.00
2023-02-11T02:47:27.281Z,0.00
2023-02-11T02:48:27.420Z,0.00
2023-02-11T02:49:27.222Z,0.00
2023-02-11T02:50:27.215Z,0.00
2023-02-11T02:51:27.424Z,0.00
2023-02-11T02:52:27.401Z,0.00
2023-02-11T02:53:27.454Z,0.00
2023-02-11T02:54:27.215Z,0.00
2023-02-11T02:55:27.459Z,0.00
2023-02-11T02:56:27.521Z,0.00
2023-02-11T02:57:27.466Z,0.00
2023-02-11T02:58:27.496Z,0.00
2023-02-11T02:59:27.113Z,0.00
2023-02-11T03:00:27.149Z,0.00
2023-02-11T03:01:27.153Z,0.00
2023-02-11T03:02:27.196Z,0.00
2023-02-11T03:03:27.102Z,0.00
2023-02-11T03:04:27.090Z,0.00
2023-02-11T03:05:27.067Z,0.00
2023-02-11T03:06:27.037Z,0.00
2023-02-11T03:07:27.345Z,0.00
2023-02-11T03:08:27.379Z,0.00
2023-02-11T03:09:27.167Z,0.00
2023-02-11T03:10:27.039Z,0.00
2023-02-11T03:11:26.975Z,0.00
2023-02-11T03:12:26.999Z,0.00
2023-02-11T03:13:26.987Z,0.00
2023-02-11T03:14:26.966Z,0.00
2023-02-11T03:15:27.245Z,0.00
2023-02-11T03:16:27.240Z,0.00
2023-02-11T03:17:27.479Z,0.00
2023-02-11T03:18:27.474Z,0.00
2023-02-11T03:19:27.028Z,0.00
2023-02-11T03:20:27.474Z,0.00
2023-02-11T03:21:26.861Z,0.00
2023-02-11T03:22:27.470Z,0.00
2023-02-11T03:23:26.868Z,0.00
2023-02-11T03:24:26.885Z,0.00
2023-02-11T03:25:26.907Z,0.00
2023-02-11T03:26:26.839Z,0.00
2023-02-11T03:27:26.803Z,0.00
2023-02-11T03:28:26.818Z,0.00
2023-02-11T03:29:26.762Z,0.00
2023-02-11T03:30:26.818Z,0.00
2023-02-11T03:31:27.039Z,0.00
2023-02-11T03:32:27.102Z,0.00
2023-02-11T03:33:27.102Z,0.00
2023-02-11T03:34:26.734Z,0.00
2023-02-11T03:35:26.716Z,0.00
2023-02-11T03:36:26.729Z,0.00
2023-02-11T03:37:27.224Z,0.00
2023-02-11T03:38:26.702Z,0.00
2023-02-11T03:39:27.244Z,0.00
2023-02-11T03:40:26.715Z,0.00
2023-02-11T03:41:27.291Z,0.00
2023-02-11T03:42:26.649Z,0.00
2023-02-11T03:43:27.037Z,0.00
2023-02-11T03:44:26.904Z,0.00
2023-02-11T03:45:26.728Z,0.00
2023-02-11T03:46:26.623Z,0.00
2023-02-11T03:47:27.457Z,0.00
2023-02-11T03:48:26.579Z,0.00
2023-02-11T03:49:26.572Z,0.00
2023-02-11T03:50:26.650Z,0.00
2023-02-11T03:51:26.553Z,0.00
2023-02-11T03:52:26.509Z,0.00
2023-02-11T03:53:26.514Z,0.00
2023-02-11T03:54:26.512Z,0.00
2023-02-11T03:55:26.505Z,0.00
2023-02-11T03:56:26.499Z,0.00
2023-02-11T03:57:26.515Z,0.00
2023-02-11T03:58:26.444Z,0.00
2023-02-11T03:59:26.483Z,0.00
2023-02-11T04:00:26.429Z,0.00
2023-02-11T04:01:26.498Z,0.00
2023-02-11T04:02:26.501Z,0.00
2023-02-11T04:03:26.605Z,0.00
2023-02-11T04:04:26.507Z,0.00
2023-02-11T04:05:26.506Z,0.00
2023-02-11T04:06:26.507Z,0.00
2023-02-11T04:07:26.360Z,0.00
2023-02-11T04:08:26.503Z,0.00
2023-02-11T04:09:26.333Z,0.00
2023-02-11T04:10:26.561Z,0.00
2023-02-11T04:11:26.513Z,0.00
2023-02-11T04:12:26.528Z,0.00
2023-02-11T04:13:26.515Z,0.00
2023-02-11T04:14:26.396Z,0.00
2023-02-11T04:15:26.538Z,0.00
2023-02-11T04:16:26.315Z,0.00
2023-02-11T04:17:26.251Z,0.00
2023-02-11T04:18:26.227Z,0.00
2023-02-11T04:19:26.284Z,0.00
2023-02-11T04:20:26.299Z,0.00
2023-02-11T04:21:26.400Z,0.00
2023-02-11T04:22:26.350Z,0.00
2023-02-11T04:23:26.382Z,0.00
2023-02-11T04:24:26.398Z,0.00
2023-02-11T04:25:26.437Z,0.00
2023-02-11T04:26:26.452Z,0.00
2023-02-11T04:27:26.503Z,0.00
2023-02-11T04:28:26.532Z,0.00
2023-02-11T04:29:26.165Z,0.00
2023-02-11T04:30:26.294Z,0.00
2023-02-11T04:31:26.643Z,0.00
2023-02-11T04:32:26.522Z,0.00
2023-02-11T04:33:26.525Z,0.00
2023-02-11T04:34:26.522Z,0.00
2023-02-11T04:35:26.076Z,0.00
2023-02-11T04:36:26.048Z,0.00
2023-02-11T04:37:26.079Z,0.00
2023-02-11T04:38:26.101Z,0.00
2023-02-11T04:39:26.136Z,0.00
2023-02-11T04:40:26.163Z,0.00
2023-02-11T04:41:26.200Z,0.00
2023-02-11T04:42:26.225Z,0.00
2023-02-11T04:43:26.254Z,0.00
2023-02-11T04:44:26.294Z,0.00
2023-02-11T04:45:26.331Z,0.00
2023-02-11T04:46:26.434Z,0.00
2023-02-11T04:47:26.372Z,0.00
2023-02-11T04:48:26.394Z,0.00
2023-02-11T04:49:25.865Z,0.00
2023-02-11T04:50:25.878Z,0.00
2023-02-11T04:51:26.149Z,0.00
2023-02-11T04:52:25.880Z,0.00
2023-02-11T04:53:26.553Z,0.00
2023-02-11T04:54:25.986Z,0.00
2023-02-11T04:55:26.550Z,0.00
2023-02-11T04:56:25.799Z,0.00
2023-02-11T04:57:26.545Z,0.00
2023-02-11T04:58:26.553Z,0.00
2023-02-11T04:59:26.561Z,0.00
2023-02-11T05:00:26.560Z,0.00
2023-02-11T05:01:26.628Z,0.00
2023-02-11T05:02:25.724Z,0.00
2023-02-11T05:03:25.707Z,0.00
2023-02-11T05:04:25.723Z,0.00
2023-02-11T05:05:25.713Z,0.00
2023-02-11T05:06:26.523Z,0.00
2023-02-11T05:07:26.552Z,0.00
2023-02-11T05:08:26.552Z,0.00
2023-02-11T05:09:26.559Z,0.00
2023-02-11T05:10:25.614Z,0.00
2023-02-11T05:11:25.658Z,0.00
2023-02-11T05:12:25.596Z,0.00
2023-02-11T05:13:25.594Z,0.00
2023-02-11T05:14:25.617Z,0.00
2023-02-11T05:15:25.622Z,0.00
2023-02-11T05:16:25.664Z,0.00
2023-02-11T05:17:25.577Z,0.00
2023-02-11T05:18:25.558Z,0.00
2023-02-11T05:19:25.564Z,0.00
2023-02-11T05:20:25.570Z,0.00
2023-02-11T05:21:25.524Z,0.00
2023-02-11T05:22:25.531Z,0.00
2023-02-11T05:23:25.568Z,0.00
2023-02-11T05:24:25.577Z,0.00
2023-02-11T05:25:25.585Z,0.00
2023-02-11T05:26:25.444Z,0.00
2023-02-11T05:27:25.573Z,0.00
2023-02-11T05:28:25.620Z,0.00
2023-02-11T05:29:25.432Z,0.00
2023-02-11T05:30:25.568Z,0.00
2023-02-11T05:31:25.573Z,0.00
2023-02-11T05:32:25.422Z,0.00
2023-02-11T05:33:25.575Z,0.00
2023-02-11T05:34:25.362Z,0.00
2023-02-11T05:35:25.573Z,0.00
2023-02-11T05:36:25.587Z,0.00
2023-02-11T05:37:25.405Z,0.00
2023-02-11T05:38:25.574Z,0.00
2023-02-11T05:39:25.590Z,0.00
2023-02-11T05:40:25.578Z,0.00
2023-02-11T05:41:25.596Z,0.00
2023-02-11T05:42:25.299Z,0.00
2023-02-11T05:43:25.577Z,0.00
2023-02-11T05:44:25.247Z,0.00
2023-02-11T05:45:25.247Z,0.00
2023-02-11T05:46:25.609Z,0.00
2023-02-11T05:47:25.583Z,0.00
2023-02-11T05:48:25.576Z,0.00
2023-02-11T05:49:25.603Z,0.00
2023-02-11T05:50:25.183Z,0.00
2023-02-11T05:51:25.228Z,0.00
2023-02-11T05:52:25.150Z,0.00
2023-02-11T05:53:25.149Z,0.00
2023-02-11T05:54:25.133Z,0.00
2023-02-11T05:55:25.585Z,0.00
2023-02-11T05:56:25.600Z,0.00
2023-02-11T05:57:25.590Z,0.00
2023-02-11T05:58:25.136Z,0.00
2023-02-11T05:59:25.105Z,0.00
2023-02-11T06:00:25.594Z,0.00
2023-02-11T06:01:25.590Z,0.00
2023-02-11T06:02:25.635Z,0.00
2023-02-11T06:03:25.067Z,0.00
2023-02-11T06:04:25.055Z,0.00
2023-02-11T06:05:25.025Z,0.00
2023-02-11T06:06:24.983Z,0.00
2023-02-11T06:07:25.006Z,0.00
2023-02-11T06:08:24.963Z,0.00
2023-02-11T06:09:24.979Z,0.00
2023-02-11T06:10:24.962Z,0.00
2023-02-11T06:11:25.189Z,0.00
2023-02-11T06:12:25.182Z,0.00
2023-02-11T06:13:25.208Z,0.00
2023-02-11T06:14:24.924Z,0.00
2023-02-11T06:15:24.912Z,0.00
2023-02-11T06:16:24.993Z,0.00
2023-02-11T06:17:24.896Z,0.00
2023-02-11T06:18:24.857Z,0.00
2023-02-11T06:19:25.351Z,0.00
2023-02-11T06:20:25.381Z,0.00
2023-02-11T06:21:33.498Z,0.00
2023-02-11T06:22:26.616Z,0.00
2023-02-11T06:23:25.311Z,0.00
2023-02-11T06:24:50.963Z,0.00
2023-02-11T06:25:25.784Z,0.00
2023-02-11T06:26:25.562Z,0.00
2023-02-11T06:27:25.259Z,0.00
2023-02-11T06:28:25.394Z,0.00
2023-02-11T06:29:25.611Z,0.00
2023-02-11T06:30:24.731Z,0.00
2023-02-11T06:31:25.648Z,0.00
2023-02-11T06:32:42.876Z,0.00
2023-02-11T06:33:25.723Z,0.00
2023-02-11T06:34:24.680Z,4.00
2023-02-11T06:35:25.622Z,4.00
2023-02-11T06:36:24.643Z,0.00
2023-02-11T06:37:24.684Z,0.00
2023-02-11T06:38:24.657Z,4.00
2023-02-11T06:39:24.653Z,4.00
2023-02-11T06:40:24.595Z,4.00
2023-02-11T06:41:24.603Z,4.00
2023-02-11T06:42:24.577Z,4.00
2023-02-11T06:43:24.625Z,8.00
2023-02-11T06:44:24.612Z,4.00
2023-02-11T06:45:24.570Z,8.00
2023-02-11T06:46:24.575Z,8.00
2023-02-11T06:47:24.526Z,8.00
2023-02-11T06:48:24.528Z,12.00
2023-02-11T06:49:24.533Z,12.00
2023-02-11T06:50:24.482Z,12.00
2023-02-11T06:51:24.631Z,12.00
2023-02-11T06:52:24.499Z,12.00
2023-02-11T06:53:24.474Z,16.00
2023-02-11T06:54:24.467Z,16.00
2023-02-11T06:55:24.452Z,16.00
2023-02-11T06:56:24.627Z,20.00
2023-02-11T06:57:24.415Z,20.00
2023-02-11T06:58:24.398Z,20.00
2023-02-11T06:59:24.390Z,24.00
2023-02-11T07:00:24.397Z,24.00
2023-02-11T07:01:24.499Z,24.00
2023-02-11T07:02:24.340Z,28.00
2023-02-11T07:03:24.358Z,28.00
2023-02-11T07:04:24.333Z,28.00
2023-02-11T07:05:24.334Z,28.00
2023-02-11T07:06:24.321Z,28.00
2023-02-11T07:07:24.598Z,28.00
2023-02-11T07:08:24.612Z,36.00
2023-02-11T07:09:24.288Z,36.00
2023-02-11T07:10:24.250Z,40.00
2023-02-11T07:11:24.334Z,40.00
2023-02-11T07:12:24.237Z,40.00
2023-02-11T07:13:24.236Z,44.00
2023-02-11T07:14:24.225Z,44.00
2023-02-11T07:15:24.423Z,48.00
2023-02-11T07:16:24.314Z,48.00
2023-02-11T07:17:24.192Z,48.00
2023-02-11T07:18:24.166Z,52.00
2023-02-11T07:19:24.409Z,56.00
2023-02-11T07:20:24.150Z,56.00
2023-02-11T07:21:24.184Z,56.00
2023-02-11T07:22:24.146Z,56.00
2023-02-11T07:23:24.200Z,60.00
2023-02-11T07:24:24.142Z,60.00
2023-02-11T07:25:24.100Z,64.00
2023-02-11T07:26:24.124Z,60.00
2023-02-11T07:27:24.104Z,64.00
2023-02-11T07:28:24.125Z,72.00
2023-02-11T07:29:24.054Z,76.00
2023-02-11T07:30:24.026Z,84.00
2023-02-11T07:31:24.186Z,84.00
2023-02-11T07:32:24.149Z,88.00
2023-02-11T07:33:24.025Z,92.00
2023-02-11T07:34:24.060Z,96.00
2023-02-11T07:35:24.014Z,100.00
2023-02-11T07:36:23.953Z,100.00
2023-02-11T07:37:23.971Z,96.00
2023-02-11T07:38:23.958Z,100.00
2023-02-11T07:39:24.389Z,100.00
2023-02-11T07:40:23.943Z,104.00
2023-02-11T07:41:23.946Z,112.00
2023-02-11T07:42:23.889Z,112.00
2023-02-11T07:43:23.896Z,112.00
2023-02-11T07:44:23.892Z,116.00
2023-02-11T07:45:23.873Z,120.00
2023-02-11T07:46:23.916Z,120.00
2023-02-11T07:47:24.670Z,136.00
2023-02-11T07:48:24.362Z,148.00
2023-02-11T07:49:23.822Z,144.00
2023-02-11T07:50:23.958Z,144.00
2023-02-11T07:51:24.687Z,144.00
2023-02-11T07:52:23.786Z,148.00
2023-02-11T07:53:23.789Z,152.00
2023-02-11T07:54:23.767Z,152.00
2023-02-11T07:55:23.839Z,160.00
2023-02-11T07:56:23.852Z,168.00
2023-02-11T07:57:23.871Z,168.00
2023-02-11T07:58:23.712Z,160.00
2023-02-11T07:59:23.709Z,156.00
2023-02-11T08:00:23.713Z,160.00
2023-02-11T08:01:23.752Z,164.00
2023-02-11T08:02:23.742Z,160.00
2023-02-11T08:03:23.679Z,164.00
2023-02-11T08:04:23.713Z,164.00
2023-02-11T08:05:23.632Z,164.00
2023-02-11T08:06:23.655Z,156.00
2023-02-11T08:07:23.621Z,148.00
2023-02-11T08:08:23.623Z,136.00
2023-02-11T08:09:23.596Z,132.00
2023-02-11T08:10:23.624Z,132.00
2023-02-11T08:11:23.585Z,132.00
2023-02-11T08:12:23.567Z,132.00
2023-02-11T08:13:23.555Z,128.00
2023-02-11T08:14:23.552Z,120.00
2023-02-11T08:15:23.533Z,120.00
2023-02-11T08:16:23.625Z,124.00
2023-02-11T08:17:23.502Z,124.00
2023-02-11T08:18:23.496Z,120.00
2023-02-11T08:19:23.485Z,120.00
2023-02-11T08:20:23.688Z,120.00
2023-02-11T08:21:23.464Z,124.00
2023-02-11T08:22:23.477Z,128.00
2023-02-11T08:23:23.458Z,132.00
2023-02-11T08:24:23.429Z,132.00
2023-02-11T08:25:23.420Z,132.00
2023-02-11T08:26:23.435Z,132.00
2023-02-11T08:27:23.380Z,128.00
2023-02-11T08:28:23.733Z,128.00
2023-02-11T08:29:23.368Z,132.00
2023-02-11T08:30:25.662Z,132.00
2023-02-11T08:31:23.448Z,132.00
2023-02-11T08:32:23.427Z,132.00
2023-02-11T08:33:23.318Z,132.00
2023-02-11T08:34:23.320Z,128.00
2023-02-11T08:35:23.696Z,128.00
2023-02-11T08:36:23.707Z,132.00
2023-02-11T08:37:23.272Z,132.00
2023-02-11T08:38:23.266Z,136.00
2023-02-11T08:39:23.341Z,136.00
2023-02-11T08:40:23.244Z,140.00
2023-02-11T08:41:23.226Z,140.00
2023-02-11T08:42:23.230Z,144.00
2023-02-11T08:43:23.697Z,144.00
2023-02-11T08:44:23.710Z,148.00
2023-02-11T08:45:23.723Z,148.00
2023-02-11T08:46:23.232Z,148.00
2023-02-11T08:47:23.160Z,156.00
2023-02-11T08:48:23.158Z,156.00
2023-02-11T08:49:23.144Z,160.00
2023-02-11T08:50:23.138Z,160.00
2023-02-11T08:51:23.241Z,160.00
2023-02-11T08:52:23.247Z,160.00
2023-02-11T08:53:23.096Z,160.00
2023-02-11T08:54:23.110Z,160.00
2023-02-11T08:55:23.070Z,164.00
2023-02-11T08:56:23.122Z,164.00
2023-02-11T08:57:23.032Z,164.00
2023-02-11T08:58:23.063Z,168.00
2023-02-11T08:59:23.058Z,176.00
2023-02-11T09:00:23.161Z,176.00
2023-02-11T09:01:23.280Z,180.00
2023-02-11T09:02:23.069Z,180.00
2023-02-11T09:03:22.980Z,188.00
2023-02-11T09:04:22.982Z,188.00
2023-02-11T09:05:22.981Z,192.00
2023-02-11T09:06:22.994Z,196.00
2023-02-11T09:07:22.933Z,204.00
2023-02-11T09:08:23.310Z,200.00
2023-02-11T09:09:22.916Z,200.00
2023-02-11T09:10:22.966Z,200.00
2023-02-11T09:11:23.657Z,208.00
2023-02-11T09:12:23.338Z,224.00
2023-02-11T09:13:22.862Z,232.00
2023-02-11T09:14:22.867Z,236.00
2023-02-11T09:15:22.854Z,232.00
2023-02-11T09:16:22.971Z,236.00
2023-02-11T09:17:22.830Z,236.00
2023-02-11T09:18:22.828Z,224.00
2023-02-11T09:19:23.718Z,224.00
2023-02-11T09:20:23.619Z,236.00
2023-02-11T09:21:22.790Z,248.00
2023-02-11T09:22:22.784Z,256.00
2023-02-11T09:23:22.747Z,252.00
2023-02-11T09:24:22.746Z,244.00
2023-02-11T09:25:22.742Z,244.00
2023-02-11T09:26:22.750Z,252.00
2023-02-11T09:27:22.726Z,272.00
2023-02-11T09:28:22.768Z,276.00
2023-02-11T09:29:22.681Z,272.00
2023-02-11T09:30:22.722Z,264.00
2023-02-11T09:31:22.812Z,268.00
2023-02-11T09:32:22.653Z,264.00
2023-02-11T09:33:22.642Z,252.00
2023-02-11T09:34:22.654Z,252.00
2023-02-11T09:35:22.618Z,260.00
2023-02-11T09:36:22.636Z,260.00
2023-02-11T09:37:22.603Z,244.00
2023-02-11T09:38:22.606Z,232.00
2023-02-11T09:39:22.565Z,224.00
2023-02-11T09:40:22.602Z,224.00
2023-02-11T09:41:22.590Z,216.00
2023-02-11T09:42:22.550Z,212.00
2023-02-11T09:43:22.527Z,220.00
2023-02-11T09:44:22.526Z,228.00
2023-02-11T09:45:22.510Z,232.00
2023-02-11T09:46:22.561Z,224.00
2023-02-11T09:47:22.477Z,224.00
2023-02-11T09:48:22.510Z,220.00
2023-02-11T09:49:22.450Z,212.00
2023-02-11T09:50:22.456Z,216.00
2023-02-11T09:51:22.446Z,220.00
2023-02-11T09:52:22.448Z,224.00
2023-02-11T09:53:22.413Z,224.00
2023-02-11T09:54:22.431Z,228.00
2023-02-11T09:55:22.387Z,228.00
2023-02-11T09:56:22.380Z,232.00
2023-02-11T09:57:28.584Z,228.00
2023-02-11T09:58:23.364Z,224.00
2023-02-11T09:59:22.340Z,220.00
2023-02-11T10:00:22.405Z,228.00
2023-02-11T10:01:22.334Z,244.00
2023-02-11T10:02:22.341Z,260.00
2023-02-11T10:03:22.290Z,268.00
2023-02-11T10:04:22.355Z,272.00
2023-02-11T10:05:22.262Z,280.00
2023-02-11T10:06:22.288Z,280.00
2023-02-11T10:07:22.268Z,288.00
2023-02-11T10:08:22.302Z,292.00
2023-02-11T10:09:22.211Z,284.00
2023-02-11T10:10:22.220Z,284.00
2023-02-11T10:11:31.320Z,296.00
2023-02-11T10:12:23.227Z,292.00
2023-02-11T10:13:22.191Z,288.00
2023-02-11T10:14:22.195Z,292.00
2023-02-11T10:15:22.778Z,284.00
2023-02-11T10:16:22.168Z,284.00
2023-02-11T10:17:22.150Z,292.00
2023-02-11T10:18:22.153Z,296.00
2023-02-11T10:19:22.119Z,328.00
2023-02-11T10:20:22.157Z,364.00
2023-02-11T10:21:22.084Z,384.00
2023-02-11T10:22:22.098Z,380.00
2023-02-11T10:23:22.072Z,368.00
2023-02-11T10:24:22.090Z,352.00
2023-02-11T10:25:22.067Z,336.00
2023-02-11T10:26:22.044Z,336.00
2023-02-11T10:27:22.033Z,336.00
2023-02-11T10:28:22.059Z,340.00
2023-02-11T10:29:22.016Z,348.00
2023-02-11T10:30:22.037Z,356.00
2023-02-11T10:31:22.718Z,364.00
2023-02-11T10:32:21.981Z,360.00
2023-02-11T10:33:22.698Z,344.00
2023-02-11T10:34:21.959Z,332.00
2023-02-11T10:35:22.768Z,336.00
2023-02-11T10:36:21.924Z,340.00
2023-02-11T10:37:21.902Z,352.00
2023-02-11T10:38:21.985Z,352.00
2023-02-11T10:39:21.944Z,348.00
2023-02-11T10:40:21.925Z,352.00
2023-02-11T10:41:21.849Z,352.00
2023-02-11T10:42:21.882Z,348.00
2023-02-11T10:43:21.825Z,356.00
2023-02-11T10:44:21.844Z,356.00
2023-02-11T10:45:21.826Z,348.00
2023-02-11T10:46:21.834Z,348.00
2023-02-11T10:47:21.807Z,352.00
2023-02-11T10:48:21.782Z,364.00
2023-02-11T10:49:21.767Z,368.00
2023-02-11T10:50:21.849Z,372.00
2023-02-11T10:51:21.730Z,376.00
2023-02-11T10:52:21.754Z,380.00
2023-02-11T10:53:21.714Z,388.00
2023-02-11T10:54:21.723Z,392.00
2023-02-11T10:55:21.813Z,392.00
2023-02-11T10:56:21.712Z,388.00
2023-02-11T10:57:21.663Z,388.00
2023-02-11T10:58:21.809Z,384.00
2023-02-11T10:59:21.808Z,376.00
2023-02-11T11:00:21.667Z,368.00
2023-02-11T11:01:24.633Z,364.00
2023-02-11T11:02:21.625Z,368.00
2023-02-11T11:03:21.602Z,364.00
2023-02-11T11:04:21.638Z,356.00
2023-02-11T11:05:21.586Z,348.00
2023-02-11T11:06:21.829Z,344.00
2023-02-11T11:07:21.570Z,344.00
2023-02-11T11:08:21.568Z,352.00
2023-02-11T11:09:21.572Z,364.00
2023-02-11T11:10:21.858Z,364.00
2023-02-11T11:11:21.818Z,356.00
2023-02-11T11:12:21.510Z,364.00
2023-02-11T11:13:21.823Z,372.00
2023-02-11T11:14:21.821Z,384.00
2023-02-11T11:15:21.467Z,404.00
2023-02-11T11:16:21.636Z,408.00
2023-02-11T11:17:21.455Z,400.00
2023-02-11T11:18:23.317Z,388.00
2023-02-11T11:19:21.823Z,404.00
2023-02-11T11:20:21.436Z,428.00
2023-02-11T11:21:21.392Z,444.00
2023-02-11T11:22:21.464Z,448.00
2023-02-11T11:23:21.823Z,460.00
2023-02-11T11:24:21.384Z,480.00
2023-02-11T11:25:21.824Z,492.00
2023-02-11T11:26:21.389Z,492.00
2023-02-11T11:27:21.826Z,496.00
2023-02-11T11:28:21.401Z,492.00
2023-02-11T11:29:21.331Z,500.00
2023-02-11T11:30:21.315Z,528.00
2023-02-11T11:31:21.377Z,536.00
2023-02-11T11:32:21.309Z,520.00
2023-02-11T11:33:21.276Z,484.00
2023-02-11T11:34:21.276Z,484.00
2023-02-11T11:35:21.252Z,500.00
2023-02-11T11:36:21.267Z,536.00
2023-02-11T11:37:21.227Z,572.00
2023-02-11T11:38:21.513Z,596.00
2023-02-11T11:39:21.196Z,624.00
2023-02-11T11:40:21.208Z,632.00
2023-02-11T11:41:21.166Z,624.00
2023-02-11T11:42:21.192Z,620.00
2023-02-11T11:43:23.197Z,620.00
2023-02-11T11:44:21.158Z,628.00
2023-02-11T11:45:21.129Z,636.00
2023-02-11T11:46:21.424Z,640.00
2023-02-11T11:47:21.098Z,640.00
2023-02-11T11:48:21.124Z,648.00
2023-02-11T11:49:21.078Z,648.00
2023-02-11T11:50:21.360Z,632.00
2023-02-11T11:51:21.056Z,620.00
2023-02-11T11:52:21.052Z,592.00
2023-02-11T11:53:21.053Z,588.00
2023-02-11T11:54:21.045Z,616.00
2023-02-11T11:55:21.014Z,648.00
2023-02-11T11:56:21.021Z,648.00
2023-02-11T11:57:21.001Z,616.00
2023-02-11T11:58:21.026Z,592.00
2023-02-11T11:59:20.958Z,568.00
2023-02-11T12:00:20.967Z,544.00
2023-02-11T12:01:20.938Z,524.00
2023-02-11T12:02:21.047Z,512.00
2023-02-11T12:03:21.051Z,484.00
2023-02-11T12:04:20.931Z,476.00
2023-02-11T12:05:20.897Z,472.00
2023-02-11T12:06:20.912Z,464.00
2023-02-11T12:07:21.329Z,440.00
2023-02-11T12:08:20.891Z,416.00
2023-02-11T12:09:20.879Z,412.00
2023-02-11T12:10:20.858Z,412.00
2023-02-11T12:11:20.862Z,404.00
2023-02-11T12:12:20.852Z,392.00
2023-02-11T12:13:20.801Z,388.00
2023-02-11T12:14:20.852Z,376.00
2023-02-11T12:15:20.782Z,356.00
2023-02-11T12:16:20.864Z,344.00
2023-02-11T12:17:20.758Z,324.00
2023-02-11T12:18:20.852Z,308.00
2023-02-11T12:19:20.858Z,304.00
2023-02-11T12:20:20.854Z,300.00
2023-02-11T12:21:20.740Z,296.00
2023-02-11T12:22:20.701Z,300.00
2023-02-11T12:23:20.703Z,316.00
2023-02-11T12:24:20.684Z,336.00
2023-02-11T12:25:20.705Z,340.00
2023-02-11T12:26:20.649Z,336.00
2023-02-11T12:27:20.673Z,332.00
2023-02-11T12:28:20.682Z,328.00
2023-02-11T12:29:20.646Z,324.00
2023-02-11T12:30:20.626Z,324.00
2023-02-11T12:31:20.784Z,320.00
2023-02-11T12:32:20.597Z,324.00
2023-02-11T12:33:20.577Z,316.00
2023-02-11T12:34:20.608Z,332.00
2023-02-11T12:35:20.576Z,332.00
2023-02-11T12:36:20.546Z,328.00
2023-02-11T12:37:20.550Z,320.00
2023-02-11T12:38:20.546Z,304.00
2023-02-11T12:39:20.529Z,304.00
2023-02-11T12:40:21.092Z,288.00
2023-02-11T12:41:20.498Z,268.00
2023-02-11T12:42:20.472Z,260.00
2023-02-11T12:43:20.483Z,264.00
2023-02-11T12:44:20.464Z,256.00
2023-02-11T12:45:20.441Z,244.00
2023-02-11T12:46:20.507Z,236.00
2023-02-11T12:47:20.462Z,228.00
2023-02-11T12:48:20.428Z,228.00
2023-02-11T12:49:20.401Z,220.00
2023-02-11T12:50:20.376Z,220.00
2023-02-11T12:51:20.406Z,220.00
2023-02-11T12:52:20.351Z,224.00
2023-02-11T12:53:20.362Z,220.00
2023-02-11T12:54:20.335Z,224.00
2023-02-11T12:55:20.337Z,228.00